Map

Track Data

SID SEASON NUMBER BASIN SUBBASIN NAME ISO_TIME NATURE LAT LON WMO_WIND WMO_PRES WMO_AGENCY TRACK_TYPE DIST2LAND LANDFALL IFLAG USA_AGENCY USA_ATCF_ID USA_LAT USA_LON USA_RECORD USA_STATUS USA_WIND USA_PRES USA_SSHS USA_R34_NE USA_R34_SE USA_R34_SW USA_R34_NW USA_R50_NE USA_R50_SE USA_R50_SW USA_R50_NW USA_R64_NE USA_R64_SE USA_R64_SW USA_R64_NW USA_POCI USA_ROCI USA_RMW USA_EYE TOKYO_LAT TOKYO_LON TOKYO_GRADE TOKYO_WIND TOKYO_PRES TOKYO_R50_DIR TOKYO_R50_LONG TOKYO_R50_SHORT TOKYO_R30_DIR TOKYO_R30_LONG TOKYO_R30_SHORT TOKYO_LAND CMA_LAT CMA_LON CMA_CAT CMA_WIND CMA_PRES HKO_LAT HKO_LON HKO_CAT HKO_WIND HKO_PRES NEWDELHI_LAT NEWDELHI_LON NEWDELHI_GRADE NEWDELHI_WIND NEWDELHI_PRES NEWDELHI_CI NEWDELHI_DP NEWDELHI_POCI REUNION_LAT REUNION_LON REUNION_TYPE REUNION_WIND REUNION_PRES REUNION_TNUM REUNION_CI REUNION_RMW REUNION_R34_NE REUNION_R34_SE REUNION_R34_SW REUNION_R34_NW REUNION_R50_NE REUNION_R50_SE REUNION_R50_SW REUNION_R50_NW REUNION_R64_NE REUNION_R64_SE REUNION_R64_SW REUNION_R64_NW BOM_LAT BOM_LON BOM_TYPE BOM_WIND BOM_PRES BOM_TNUM BOM_CI BOM_RMW BOM_R34_NE BOM_R34_SE BOM_R34_SW BOM_R34_NW BOM_R50_NE BOM_R50_SE BOM_R50_SW BOM_R50_NW BOM_R64_NE BOM_R64_SE BOM_R64_SW BOM_R64_NW BOM_ROCI BOM_POCI BOM_EYE BOM_POS_METHOD BOM_PRES_METHOD NADI_LAT NADI_LON NADI_CAT NADI_WIND NADI_PRES WELLINGTON_LAT WELLINGTON_LON WELLINGTON_WIND WELLINGTON_PRES DS824_LAT DS824_LON DS824_STAGE DS824_WIND DS824_PRES TD9636_LAT TD9636_LON TD9636_STAGE TD9636_WIND TD9636_PRES TD9635_LAT TD9635_LON TD9635_WIND TD9635_PRES TD9635_ROCI NEUMANN_LAT NEUMANN_LON NEUMANN_CLASS NEUMANN_WIND NEUMANN_PRES MLC_LAT MLC_LON MLC_CLASS MLC_WIND MLC_PRES USA_GUST BOM_GUST BOM_GUST_PER REUNION_GUST REUNION_GUST_PER USA_SEAHGT USA_SEARAD_NE USA_SEARAD_SE USA_SEARAD_SW USA_SEARAD_NW STORM_SPEED STORM_DIR
1890122N10114 1890 10 WP MM NOT_NAMED 1890-05-01 16:00:00 NR 10.1000 113.700 main 429 429 __________O___ -1 10.1000 113.700 7 47 11
1890122N10114 1890 10 WP MM NOT_NAMED 1890-05-01 18:00:00 NR 11.6282 114.009 main 488 497 __________P___ -1 11.6282 114.009 7 46 11
1890122N10114 1890 10 WP MM NOT_NAMED 1890-05-01 21:00:00 NR 13.8386 114.460 main 550 513 __________P___ -1 13.8386 114.460 7 43 11
1890122N10114 1890 10 WP MM NOT_NAMED 1890-05-02 00:00:00 NR 15.8270 114.871 main 513 497 __________P___ -1 15.8270 114.871 7 37 11
1890122N10114 1890 10 WP MM NOT_NAMED 1890-05-02 03:00:00 NR 17.4582 115.209 main 501 495 __________P___ -1 17.4582 115.209 7 32 11
1890122N10114 1890 10 WP MM NOT_NAMED 1890-05-02 04:00:00 NR 17.9000 115.300 main 491 429 __________O___ -1 17.9000 115.300 7 24 11
1890122N10114 1890 10 WP MM NOT_NAMED 1890-05-02 06:00:00 NR 18.6163 115.446 main 429 351 __________P___ -1 18.6163 115.446 7 18 11
1890122N10114 1890 10 WP MM NOT_NAMED 1890-05-02 09:00:00 NR 19.3523 115.604 main 351 313 __________P___ -1 19.3523 115.604 7 12 13
1890122N10114 1890 10 WP MM NOT_NAMED 1890-05-02 12:00:00 NR 19.8213 115.742 main 313 277 __________P___ -1 19.8213 115.742 7 9 20
1890122N10114 1890 10 WP MM NOT_NAMED 1890-05-02 15:00:00 NR 20.1789 115.921 main 277 269 __________P___ -1 20.1789 115.921 7 8 27
1890122N10114 1890 10 WP MM NOT_NAMED 1890-05-02 16:00:00 NR 20.3000 116.000 main 269 227 __________O___ -1 20.3000 116.000 3 12 28
1890122N10114 1890 10 WP MM NOT_NAMED 1890-05-02 18:00:00 NR 20.6928 116.212 main 227 175 __________P___ -1 20.6928 116.212 3 13 30
1890122N10114 1890 10 WP MM NOT_NAMED 1890-05-02 21:00:00 NR 21.2576 116.594 main 175 133 __________P___ -1 21.2576 116.594 3 13 36
1890122N10114 1890 10 WP MM NOT_NAMED 1890-05-03 00:00:00 NR 21.7653 117.038 main 133 127 __________P___ -1 21.7653 117.038 3 13 43
1890122N10114 1890 10 WP MM NOT_NAMED 1890-05-03 03:00:00 NR 22.1850 117.529 main 129 131 __________P___ -1 22.1850 117.529 3 12 49
1890122N10114 1890 10 WP MM NOT_NAMED 1890-05-03 04:00:00 NR 22.3000 117.700 main 140 140 __________O___ -1 22.3000 117.700 4 11 56
1890122N10114 1890 10 WP MM NOT_NAMED 1890-05-03 06:00:00 NR 22.5009 118.041 main 140 137 __________P___ -1 22.5009 118.041 4 11 63
1890122N10114 1890 10 WP MM NOT_NAMED 1890-05-03 09:00:00 NR 22.7145 118.584 main 151 107 __________P___ -1 22.7145 118.584 4 11 72
1890122N10114 1890 10 WP MM NOT_NAMED 1890-05-03 12:00:00 NR 22.8392 119.148 main 107 46 __________P___ -1 22.8392 119.148 4 11 80
1890122N10114 1890 10 WP MM NOT_NAMED 1890-05-03 15:00:00 NR 22.8940 119.714 main 46 30 __________P___ -1 22.8940 119.714 4 10 85
1890122N10114 1890 10 WP MM NOT_NAMED 1890-05-03 16:00:00 NR 22.9000 119.900 main 30 0 __________O___ -1 22.9000 119.900 4 10 90
1890122N10114 1890 10 WP MM NOT_NAMED 1890-05-03 18:00:00 NR 22.8975 120.265 main 0 0 __________P___ -1 22.8975 120.265 4 10 93
1890122N10114 1890 10 WP MM NOT_NAMED 1890-05-03 21:00:00 NR 22.8636 120.798 main 0 0 __________P___ -1 22.8636 120.798 4 10 96
1890122N10114 1890 10 WP MM NOT_NAMED 1890-05-04 00:00:00 NR 22.8032 121.318 main 15 15 __________P___ -1 22.8032 121.318 4 10 98
1890122N10114 1890 10 WP MM NOT_NAMED 1890-05-04 03:00:00 NR 22.7271 121.830 main 60 67 __________P___ -1 22.7271 121.830 4 10 99
1890122N10114 1890 10 WP MM NOT_NAMED 1890-05-04 04:00:00 NR 22.7000 122.000 main 75 __________O___ -1 22.7000 122.000 7 10 100

Digital Typhoon Data and Search

About IBTrACS Database

This database is a web-friendly format of International Best Track Archive for Climate Stewardship (IBTrACS), a global best track data archive curated by NOAA dating back to 1842.

Updated: 2021-12-06